Asheville Regional Airport Airport (AVL)

Airport Diagram
Current Weather/Forecast (VFR Conditions)
METAR KAVL 291754Z 35007G15KT 10SM CLR 08/M16 A3041 RMK AO2 SLP302 T00781161 10078 21006 58005
TAF KAVL 291736Z 2918/0118 35010G18KT P6SM SCT220 FM292300 15004KT P6SM SCT100 BKN200 FM011000 16005KT P6SM -DZ SCT009 OVC060 FM011400 15007KT 5SM -RA OVC005

All Charts
General
Chart Name Download
AIRPORT DIAGRAM
TAKEOFF MINIMUMS
ALTERNATE MINIMUMS
HOT SPOT

Departures
Chart Name Download
ASHEVILLE SEVEN

Approaches
Chart Name Download
ILS OR LOC RWY 17
ILS OR LOC RWY 35
RNAV (GPS) RWY 17
RNAV (GPS) RWY 35


Inbound Traffic (Arrivals)

No inbound traffic.


Outbound Traffic (Departures)

No outbound traffic.